createdAt,value
2022-08-07T00:01:00.870Z,102414.66
2022-08-07T00:07:09.389Z,102405.41
2022-08-07T00:13:00.962Z,102401.56
2022-08-07T00:18:48.657Z,102399.41
2022-08-07T00:24:35.576Z,102395.25
2022-08-07T00:30:27.340Z,102399.88
2022-08-07T00:36:16.817Z,102394.41
2022-08-07T00:42:05.478Z,102397.63
2022-08-07T00:48:08.104Z,102389.78
2022-08-07T00:53:58.231Z,102390.50
2022-08-07T00:59:45.419Z,102386.28
2022-08-07T01:05:36.556Z,102382.81
2022-08-07T01:12:09.454Z,102384.72
2022-08-07T01:17:34.191Z,102384.09
2022-08-07T01:23:35.413Z,102384.28
2022-08-07T01:29:31.454Z,102386.91
2022-08-07T01:35:24.505Z,102383.50
2022-08-07T01:41:14.210Z,102384.84
2022-08-07T01:48:19.786Z,102378.44
2022-08-07T01:54:08.510Z,102384.13
2022-08-07T01:59:50.787Z,102382.28
2022-08-07T02:05:59.664Z,102388.38
2022-08-07T02:12:04.833Z,102393.81
2022-08-07T02:17:59.890Z,102396.50
2022-08-07T02:23:49.183Z,102395.38
2022-08-07T02:29:48.734Z,102396.06
2022-08-07T02:36:29.499Z,102392.03
2022-08-07T02:41:54.460Z,102391.03
2022-08-07T02:47:45.434Z,102386.31
2022-08-07T02:53:39.877Z,102382.56
2022-08-07T02:59:32.494Z,102386.88
2022-08-07T03:05:24.647Z,102397.13
2022-08-07T03:11:13.946Z,102390.22
2022-08-07T03:17:05.382Z,102388.16
2022-08-07T03:22:58.725Z,102380.09
2022-08-07T03:28:47.583Z,102381.53
2022-08-07T03:34:47.142Z,102373.00
2022-08-07T03:40:53.917Z,102375.97
2022-08-07T03:47:11.256Z,102385.06
2022-08-07T03:52:53.273Z,102384.81
2022-08-07T03:59:08.301Z,102375.75
2022-08-07T04:04:49.549Z,102394.47
2022-08-07T04:10:38.636Z,102387.28
2022-08-07T04:16:31.473Z,102393.41
2022-08-07T04:22:27.374Z,102386.97
2022-08-07T04:28:15.175Z,102384.63
2022-08-07T04:34:02.936Z,102384.09
2022-08-07T04:39:50.226Z,102382.72
2022-08-07T04:46:01.653Z,102387.84
2022-08-07T04:52:20.040Z,102391.03
2022-08-07T04:58:33.629Z,102402.25
2022-08-07T05:04:43.869Z,102397.19
2022-08-07T05:10:49.035Z,102405.97
2022-08-07T05:16:44.021Z,102409.72
2022-08-07T05:22:36.249Z,102424.34
2022-08-07T05:28:37.060Z,102418.59
2022-08-07T05:34:30.230Z,102416.16
2022-08-07T05:40:20.635Z,102410.75
2022-08-07T05:46:08.604Z,102411.88
2022-08-07T05:51:55.722Z,102413.53
2022-08-07T05:57:46.513Z,102402.50
2022-08-07T06:03:53.748Z,102408.47
2022-08-07T06:10:05.048Z,102431.56
2022-08-07T06:15:55.565Z,102409.88
2022-08-07T06:22:15.936Z,102420.84
2022-08-07T06:28:04.531Z,102435.00
2022-08-07T06:33:55.265Z,102435.56
2022-08-07T06:40:13.051Z,102435.00
2022-08-07T06:45:50.891Z,102436.69
2022-08-07T06:51:49.585Z,102435.41
2022-08-07T06:57:48.334Z,102439.88
2022-08-07T07:03:48.141Z,102443.00
2022-08-07T07:09:38.350Z,102444.47
2022-08-07T07:15:36.114Z,102434.72
2022-08-07T07:22:04.257Z,102436.38
2022-08-07T07:27:56.140Z,102444.19
2022-08-07T07:33:57.105Z,102439.53
2022-08-07T07:39:54.994Z,102435.38
2022-08-07T07:46:36.665Z,102441.97
2022-08-07T07:51:58.139Z,102445.41
2022-08-07T07:57:53.618Z,102440.06
2022-08-07T08:04:10.121Z,102445.19
2022-08-07T08:09:52.141Z,102437.91
2022-08-07T08:15:58.651Z,102430.75
2022-08-07T08:22:08.113Z,102437.00
2022-08-07T08:28:03.684Z,102432.59
2022-08-07T08:33:55.433Z,102419.00
2022-08-07T08:39:54.890Z,102412.03
2022-08-07T08:46:04.010Z,102413.44
2022-08-07T08:52:13.695Z,102418.56
2022-08-07T08:58:24.844Z,102410.31
2022-08-07T09:04:30.224Z,102404.81
2022-08-07T09:10:35.308Z,102394.75
2022-08-07T09:16:49.608Z,102378.75
2022-08-07T09:24:31.771Z,102375.63
2022-08-07T09:30:04.373Z,102369.69
2022-08-07T09:36:05.469Z,102371.13
2022-08-07T09:42:05.866Z,102357.44
2022-08-07T09:48:20.529Z,102359.50
2022-08-07T09:54:17.745Z,102346.47
2022-08-07T10:00:14.759Z,102336.09
2022-08-07T10:06:17.379Z,102332.47
2022-08-07T10:12:26.389Z,102325.38
2022-08-07T10:18:41.380Z,102318.53
2022-08-07T10:25:03.308Z,102315.22
2022-08-07T10:31:14.910Z,102306.75
2022-08-07T10:37:12.710Z,102319.25
2022-08-07T10:43:02.413Z,102292.94
2022-08-07T10:49:16.891Z,102296.91
2022-08-07T10:55:26.566Z,102296.25
2022-08-07T11:01:35.702Z,102290.66
2022-08-07T11:08:16.447Z,102288.84
2022-08-07T11:14:44.639Z,102293.19
2022-08-07T11:20:41.390Z,102269.88
2022-08-07T11:26:48.072Z,102270.84
2022-08-07T11:32:43.865Z,102261.13
2022-08-07T11:38:50.587Z,102247.53
2022-08-07T11:44:59.689Z,102236.94
2022-08-07T11:51:40.673Z,102229.25
2022-08-07T11:58:16.423Z,102221.28
2022-08-07T12:04:30.615Z,102219.88
2022-08-07T12:10:41.918Z,102217.63
2022-08-07T12:16:42.718Z,102218.38
2022-08-07T12:23:14.516Z,102216.94
2022-08-07T12:29:37.954Z,102208.88
2022-08-07T12:35:31.120Z,102201.16
2022-08-07T12:41:42.679Z,102197.28
2022-08-07T12:47:43.937Z,102200.88
2022-08-07T12:54:03.078Z,102184.84
2022-08-07T13:00:16.476Z,102182.16
2022-08-07T13:06:27.870Z,102194.38
2022-08-07T13:12:37.222Z,102185.25
2022-08-07T13:18:28.405Z,102176.69
2022-08-07T13:24:53.997Z,102162.97
2022-08-07T13:30:48.876Z,102163.72
2022-08-07T13:36:53.699Z,102166.03
2022-08-07T13:42:45.627Z,102157.69
2022-08-07T13:48:35.046Z,102154.38
2022-08-07T13:54:33.592Z,102148.72
2022-08-07T14:00:26.909Z,102135.00
2022-08-07T14:06:15.026Z,102127.88
2022-08-07T14:12:07.333Z,102130.38
2022-08-07T14:18:24.081Z,102123.59
2022-08-07T14:24:33.267Z,102124.44
2022-08-07T14:30:32.624Z,102105.97
2022-08-07T14:36:22.863Z,102099.09
2022-08-07T14:42:22.473Z,102093.16
2022-08-07T14:48:22.102Z,102102.47
2022-08-07T14:54:32.884Z,102096.28
2022-08-07T15:00:30.892Z,102101.19
2022-08-07T15:06:23.254Z,102091.44
2022-08-07T15:18:41.842Z,102077.88
2022-08-07T15:30:59.532Z,102067.94
2022-08-07T15:37:02.896Z,102051.69
2022-08-07T15:50:05.555Z,102032.75
2022-08-07T15:56:01.945Z,102034.88
2022-08-07T16:02:02.077Z,102021.41
2022-08-07T16:08:33.648Z,102031.25
2022-08-07T16:14:12.982Z,102030.13
2022-08-07T16:20:34.043Z,102025.38
2022-08-07T16:26:30.899Z,102019.09
2022-08-07T16:32:35.890Z,102023.53
2022-08-07T16:39:00.995Z,102017.91
2022-08-07T16:45:15.556Z,102008.47
2022-08-07T16:52:01.453Z,102015.47
2022-08-07T16:58:03.949Z,102021.31
2022-08-07T17:04:07.620Z,102018.72
2022-08-07T17:10:32.242Z,102015.59
2022-08-07T17:16:55.965Z,102019.59
2022-08-07T17:23:32.565Z,102022.09
2022-08-07T17:30:15.024Z,102017.81
2022-08-07T17:36:00.912Z,102008.16
2022-08-07T17:42:06.707Z,102010.19
2022-08-07T17:48:13.168Z,102002.44
2022-08-07T17:54:14.090Z,102000.97
2022-08-07T18:00:32.728Z,102003.81
2022-08-07T18:06:36.697Z,102005.66
2022-08-07T18:12:48.196Z,102003.50
2022-08-07T18:21:08.596Z,101999.22
2022-08-07T18:25:19.189Z,101997.47
2022-08-07T18:32:04.255Z,101992.75
2022-08-07T18:38:55.561Z,101998.47
2022-08-07T18:45:40.188Z,102008.91
2022-08-07T18:52:37.862Z,102016.38
2022-08-07T18:57:58.706Z,102019.97
2022-08-07T19:04:14.459Z,102028.03
2022-08-07T19:10:51.776Z,102019.50
2022-08-07T19:17:09.305Z,102021.88
2022-08-07T19:23:21.190Z,102031.13
2022-08-07T19:31:02.942Z,102043.09
2022-08-07T19:35:49.323Z,102038.59
2022-08-07T19:42:05.941Z,102045.16
2022-08-07T19:47:56.200Z,102053.75
2022-08-07T19:54:34.783Z,102064.34
2022-08-07T20:14:54.171Z,102060.44
2022-08-07T20:20:46.178Z,102074.34
2022-08-07T20:26:44.786Z,102080.00
2022-08-07T20:32:40.366Z,102084.53
2022-08-07T20:38:30.809Z,102095.66
2022-08-07T20:44:20.467Z,102094.19
2022-08-07T20:50:11.128Z,102091.81
2022-08-07T20:56:03.588Z,102100.03
2022-08-07T21:01:55.275Z,102095.50
2022-08-07T21:07:49.953Z,102100.75
2022-08-07T21:13:57.635Z,102106.94
2022-08-07T21:20:00.642Z,102106.69
2022-08-07T21:26:12.162Z,102112.38
2022-08-07T21:32:47.459Z,102124.00
2022-08-07T21:38:55.406Z,102121.88
2022-08-07T21:44:51.313Z,102122.00
2022-08-07T21:51:12.415Z,102127.97
2022-08-07T21:58:05.287Z,102128.53
2022-08-07T22:04:04.176Z,102125.72
2022-08-07T22:10:04.093Z,102132.06
2022-08-07T22:16:44.088Z,102150.16
2022-08-07T22:22:52.532Z,102157.34
2022-08-07T22:29:34.070Z,102168.94
2022-08-07T22:36:11.834Z,102179.84
2022-08-07T22:42:26.162Z,102174.38
2022-08-07T22:49:02.237Z,102162.44
2022-08-07T22:55:22.987Z,102182.25
2022-08-07T23:01:49.556Z,102198.81
2022-08-07T23:10:05.219Z,102197.69
2022-08-07T23:16:48.348Z,102199.75
2022-08-07T23:22:53.932Z,102215.88
2022-08-07T23:29:17.037Z,102210.78
2022-08-07T23:43:51.254Z,102223.84
2022-08-07T23:50:11.888Z,102220.66
2022-08-07T23:56:54.210Z,102223.47
